Time;durP1;ratioP1;P1;durP2;ratioP2;P2;SDS_P1;SDS_P2;PMS_P1;PMS_P2;Temp;Humidity;BMP_temperature;BMP_pressure;BME280_temperature;BME280_humidity;BME280_pressure;Samples;Min_cycle;Max_cycle;Signal;HPM_P1;HPM_P2
2021/08/22 00:00:43;;;;;;;4.60;3.00;;;;;;;13.74;77.00;99240.92;111180;1203;60903;-20
2021/08/22 00:03:12;;;;;;;4.90;3.10;;;;;;;13.68;76.86;99238.95;111132;1203;60858;-24
2021/08/22 00:05:41;;;;;;;7.00;3.10;;;;;;;13.44;77.99;99239.32;111054;1202;75150;-23
2021/08/22 00:08:11;;;;;;;4.70;3.20;;;;;;;13.14;79.31;99237.98;111037;1205;74691;-23
2021/08/22 00:10:39;;;;;;;4.10;2.40;;;;;;;12.90;80.27;99237.42;110980;1203;71742;-23
2021/08/22 00:13:08;;;;;;;3.60;2.40;;;;;;;13.38;78.61;99236.73;111126;1204;62464;-24
2021/08/22 00:15:36;;;;;;;4.40;2.80;;;;;;;13.82;76.85;99234.70;111122;1205;62309;-23
2021/08/22 00:18:04;;;;;;;7.60;2.90;;;;;;;13.75;76.52;99231.27;111183;1202;75126;-23
2021/08/22 00:20:32;;;;;;;6.90;3.40;;;;;;;13.50;76.95;99233.21;111208;1202;75788;-23
2021/08/22 00:23:00;;;;;;;4.20;3.20;;;;;;;13.13;78.73;99231.44;111137;1202;73938;-22
2021/08/22 00:25:32;;;;;;;4.30;2.40;;;;;;;12.85;79.94;99230.91;111138;1201;63186;-22
2021/08/22 00:28:00;;;;;;;4.00;2.60;;;;;;;13.21;78.69;99231.62;111195;1202;61591;-23
2021/08/22 00:30:30;;;;;;;4.30;2.60;;;;;;;13.54;77.00;99233.21;111147;1202;75384;-22
2021/08/22 00:32:58;;;;;;;4.60;3.00;;;;;;;13.38;77.65;99237.27;111158;1201;75582;-22
2021/08/22 00:35:27;;;;;;;4.70;3.00;;;;;;;13.09;78.53;99234.58;111173;1201;71758;-22
2021/08/22 00:37:56;;;;;;;5.10;3.30;;;;;;;12.85;79.68;99235.80;111137;1201;60874;-22
2021/08/22 00:40:24;;;;;;;4.40;2.50;;;;;;;12.60;81.18;99236.89;111154;1202;61658;-22
2021/08/22 00:42:55;;;;;;;6.40;3.50;;;;;;;13.01;79.52;99234.10;111170;1202;73580;-22
2021/08/22 00:45:23;;;;;;;5.00;3.40;;;;;;;13.40;78.07;99236.21;111193;1202;75576;-22
2021/08/22 00:47:58;;;;;;;7.30;3.50;;;;;;;13.35;77.80;99235.73;111100;1195;75511;-22
2021/08/22 00:50:26;;;;;;;5.00;3.40;;;;;;;13.08;78.68;99237.46;111175;1200;60844;-22
2021/08/22 00:52:55;;;;;;;5.80;3.80;;;;;;;12.82;79.79;99240.59;111182;1202;60895;-22
2021/08/22 00:55:23;;;;;;;4.10;2.50;;;;;;;12.62;80.69;99238.79;111162;1202;74159;-22
2021/08/22 00:57:52;;;;;;;6.30;3.20;;;;;;;13.01;79.40;99238.61;111161;1201;75538;-22
2021/08/22 01:00:20;;;;;;;4.20;3.60;;;;;;;13.42;77.83;99237.20;111144;1202;73232;-22
2021/08/22 01:02:59;;;;;;;6.30;3.60;;;;;;;13.47;77.57;99236.22;111115;1201;61137;-22
2021/08/22 01:05:31;;;;;;;4.40;3.10;;;;;;;13.27;78.34;99238.02;111148;1202;61441;-22
2021/08/22 01:08:26;;;;;;;4.60;3.20;;;;;;;13.02;78.83;99236.02;111170;1195;75279;-22
2021/08/22 01:10:57;;;;;;;4.60;2.10;;;;;;;12.83;79.14;99240.48;111209;1196;74658;-22
2021/08/22 01:13:28;;;;;;;4.00;2.40;;;;;;;13.42;77.56;99241.63;111137;1203;73273;-22
2021/08/22 01:15:57;;;;;;;4.20;2.70;;;;;;;13.88;75.28;99239.92;111162;1202;60854;-21
2021/08/22 01:18:35;;;;;;;7.50;3.60;;;;;;;13.72;75.36;99238.91;111123;1202;60976;-21
2021/08/22 01:21:12;;;;;;;5.00;3.10;;;;;;;13.37;76.21;99240.11;111131;1204;73886;-20
2021/08/22 01:23:47;;;;;;;5.90;3.50;;;;;;;13.02;77.46;99241.09;111126;1198;74520;-24
2021/08/22 01:26:17;;;;;;;5.70;3.80;;;;;;;12.71;78.69;99242.23;111036;1203;73993;-23
2021/08/22 01:28:46;;;;;;;5.40;2.50;;;;;;;12.48;79.23;99243.18;111121;1202;63197;-22
2021/08/22 01:31:16;;;;;;;5.70;2.50;;;;;;;12.91;77.92;99241.20;111173;1201;60815;-23
2021/08/22 01:33:44;;;;;;;3.90;2.60;;;;;;;13.34;76.66;99245.61;111115;1200;75308;-23
2021/08/22 01:36:12;;;;;;;5.00;3.00;;;;;;;13.35;76.27;99242.73;111136;1202;74312;-23
2021/08/22 01:38:41;;;;;;;4.70;2.90;;;;;;;13.12;76.90;99243.03;111126;1202;74270;-23
2021/08/22 01:41:09;;;;;;;4.30;3.50;;;;;;;12.84;77.27;99242.17;111188;1202;60836;-23
2021/08/22 01:43:37;;;;;;;4.10;2.20;;;;;;;12.59;77.92;99242.52;111154;1201;60787;-23
2021/08/22 01:46:06;;;;;;;3.70;2.80;;;;;;;12.91;77.79;99242.95;111172;1201;75143;-23
2021/08/22 01:48:36;;;;;;;4.20;2.60;;;;;;;13.34;76.23;99240.73;111173;1201;76069;-22
2021/08/22 01:51:06;;;;;;;4.60;3.40;;;;;;;13.29;75.86;99238.54;111129;1202;73943;-23
2021/08/22 01:53:35;;;;;;;5.70;3.20;;;;;;;13.00;76.73;99237.95;111095;1200;60807;-24
2021/08/22 01:56:03;;;;;;;5.60;3.60;;;;;;;12.73;77.20;99238.08;111155;1202;60896;-23
2021/08/22 01:58:32;;;;;;;4.50;2.50;;;;;;;12.50;77.69;99237.05;111162;1202;74992;-23
2021/08/22 02:01:00;;;;;;;6.90;2.40;;;;;;;12.88;77.51;99237.60;111168;1201;75405;-22
2021/08/22 02:03:39;;;;;;;4.90;3.40;;;;;;;13.35;76.36;99236.25;111168;1201;73187;-23
2021/08/22 02:06:15;;;;;;;4.50;3.00;;;;;;;13.35;75.89;99236.93;111146;1202;60914;-22
2021/08/22 02:08:45;;;;;;;3.90;3.10;;;;;;;13.12;76.11;99233.64;111130;1200;60884;-22
2021/08/22 02:11:42;;;;;;;7.00;3.40;;;;;;;12.78;76.97;99238.14;111125;1200;75276;-23
2021/08/22 02:14:14;;;;;;;3.90;2.60;;;;;;;12.44;78.26;99241.27;111148;1200;75636;-23
2021/08/22 02:16:47;;;;;;;4.10;2.60;;;;;;;12.79;77.18;99242.27;111078;1202;74119;-23
2021/08/22 02:19:15;;;;;;;4.60;3.00;;;;;;;13.27;75.78;99237.67;111014;1204;61468;-22
2021/08/22 02:21:45;;;;;;;4.80;2.90;;;;;;;13.23;74.81;99238.38;111147;1202;60880;-22
2021/08/22 02:24:13;;;;;;;3.90;3.10;;;;;;;12.92;76.24;99240.55;111173;1201;74943;-22
2021/08/22 02:26:41;;;;;;;5.60;3.40;;;;;;;12.57;77.41;99243.78;111153;1201;75260;-22
2021/08/22 02:29:10;;;;;;;4.50;2.80;;;;;;;12.29;78.55;99241.80;111113;1198;72578;-22
2021/08/22 02:31:38;;;;;;;4.80;2.80;;;;;;;12.63;78.15;99239.58;111164;1201;60987;-23
2021/08/22 02:34:07;;;;;;;4.20;3.50;;;;;;;13.07;76.80;99237.35;111165;1202;60928;-21
2021/08/22 02:36:35;;;;;;;5.60;3.10;;;;;;;13.02;76.63;99234.63;111120;1201;75005;-21
2021/08/22 02:39:03;;;;;;;6.40;3.30;;;;;;;12.75;77.50;99238.21;111136;1201;75529;-22
2021/08/22 02:41:32;;;;;;;5.40;3.60;;;;;;;12.44;78.14;99238.66;111105;1201;72873;-23
2021/08/22 02:44:01;;;;;;;4.60;2.50;;;;;;;12.13;78.81;99238.48;111088;1202;62069;-22
2021/08/22 02:46:29;;;;;;;5.00;2.70;;;;;;;12.46;78.55;99239.48;111084;1201;60965;-22
2021/08/22 02:48:59;;;;;;;3.90;3.30;;;;;;;12.91;76.75;99234.23;111142;1201;74912;-24
2021/08/22 02:51:27;;;;;;;4.70;2.90;;;;;;;12.86;76.81;99235.67;111228;1201;74046;-23
2021/08/22 02:53:57;;;;;;;7.10;3.00;;;;;;;12.63;77.02;99242.09;111148;1202;72962;-23
2021/08/22 02:56:25;;;;;;;4.10;2.90;;;;;;;12.35;77.57;99239.95;111169;1202;60868;-23
2021/08/22 02:58:54;;;;;;;4.40;2.20;;;;;;;12.07;78.54;99241.61;111077;1202;60961;-23
2021/08/22 03:01:22;;;;;;;4.10;2.60;;;;;;;12.46;78.29;99240.72;111128;1201;75071;-22
2021/08/22 03:03:51;;;;;;;8.70;3.60;;;;;;;12.95;76.87;99236.30;111164;1201;72887;-23
2021/08/22 03:06:20;;;;;;;5.10;3.00;;;;;;;12.89;76.71;99244.19;111164;1202;73129;-23
2021/08/22 03:08:51;;;;;;;5.90;3.70;;;;;;;12.61;77.63;99241.90;111123;1201;60815;-23
2021/08/22 03:11:20;;;;;;;6.20;3.90;;;;;;;12.34;78.75;99243.15;111176;1201;60860;-22
2021/08/22 03:13:55;;;;;;;5.40;2.70;;;;;;;12.11;79.62;99240.40;111086;1202;74180;-23
2021/08/22 03:16:23;;;;;;;5.50;3.20;;;;;;;12.53;78.95;99243.63;111127;1202;75315;-22
2021/08/22 03:19:11;;;;;;;4.80;3.10;;;;;;;13.04;77.21;99237.98;111095;1201;73961;-23
2021/08/22 03:21:45;;;;;;;4.80;3.30;;;;;;;13.01;77.14;99238.94;111155;1201;60903;-23
2021/08/22 03:24:13;;;;;;;7.60;3.50;;;;;;;12.83;77.42;99236.49;111116;1200;61380;-23
2021/08/22 03:26:41;;;;;;;5.30;3.70;;;;;;;12.62;77.84;99238.33;111186;1201;74262;-22
2021/08/22 03:29:10;;;;;;;4.20;2.90;;;;;;;12.45;78.16;99236.95;111148;1195;74715;-23
2021/08/22 03:31:39;;;;;;;5.10;3.30;;;;;;;12.89;78.03;99235.40;111126;1201;74063;-23
2021/08/22 03:34:07;;;;;;;5.20;3.40;;;;;;;13.49;76.34;99236.29;111102;1201;60876;-23
2021/08/22 03:36:37;;;;;;;3.90;3.10;;;;;;;13.61;75.48;99236.81;111120;1202;61685;-23
2021/08/22 03:39:05;;;;;;;5.20;3.50;;;;;;;13.46;75.50;99238.80;111175;1202;72165;-23
2021/08/22 03:41:35;;;;;;;5.30;3.70;;;;;;;13.29;75.36;99240.13;111153;1201;75420;-22
2021/08/22 03:44:04;;;;;;;4.50;2.60;;;;;;;13.20;75.72;99243.15;111178;1201;74199;-23
2021/08/22 03:46:32;;;;;;;4.90;2.80;;;;;;;13.74;75.31;99247.65;111178;1201;61889;-23
2021/08/22 03:49:01;;;;;;;5.90;3.30;;;;;;;14.43;73.79;99245.45;111141;1201;60877;-21
2021/08/22 03:51:30;;;;;;;5.10;3.50;;;;;;;14.64;72.89;99247.17;111152;1202;74892;-21
2021/08/22 03:53:59;;;;;;;6.20;3.80;;;;;;;14.57;72.78;99249.44;111163;1199;74145;-21
2021/08/22 03:56:28;;;;;;;6.30;4.10;;;;;;;14.38;72.98;99252.17;111183;1201;72899;-21
2021/08/22 03:58:56;;;;;;;7.40;3.90;;;;;;;14.25;73.08;99252.89;111033;1200;61249;-22
2021/08/22 04:01:27;;;;;;;6.10;2.80;;;;;;;14.26;73.26;99257.69;111074;1201;61652;-22
2021/08/22 04:03:57;;;;;;;6.20;3.00;;;;;;;15.06;72.44;99253.11;111042;1202;74193;-22
2021/08/22 04:06:40;;;;;;;4.10;2.80;;;;;;;16.06;69.71;99257.65;111177;1201;74161;-22
2021/08/22 04:09:09;;;;;;;3.60;2.80;;;;;;;16.42;67.27;99258.69;111160;1201;72748;-22
2021/08/22 04:11:37;;;;;;;6.00;3.10;;;;;;;16.42;66.62;99262.63;111196;1201;60902;-23
2021/08/22 04:14:09;;;;;;;5.30;2.80;;;;;;;16.37;67.39;99265.27;111144;1202;60867;-23
2021/08/22 04:16:37;;;;;;;5.40;3.20;;;;;;;16.36;67.56;99269.56;111140;1201;75181;-21
2021/08/22 04:19:05;;;;;;;7.00;3.60;;;;;;;16.28;67.43;99270.19;111164;1201;74730;-22
2021/08/22 04:21:34;;;;;;;4.70;2.70;;;;;;;16.17;68.01;99269.71;111119;1201;73839;-22
2021/08/22 04:24:05;;;;;;;4.70;3.40;;;;;;;16.69;68.53;99269.59;111120;1201;60883;-22
2021/08/22 04:26:34;;;;;;;4.80;3.70;;;;;;;17.18;66.25;99266.73;111178;1201;60854;-22
2021/08/22 04:29:03;;;;;;;5.90;3.60;;;;;;;17.13;66.04;99268.21;111150;1201;74100;-22
2021/08/22 04:31:31;;;;;;;6.70;3.70;;;;;;;16.91;66.18;99269.17;111109;1201;75553;-22
2021/08/22 04:33:59;;;;;;;5.70;3.90;;;;;;;16.84;66.68;99271.67;111167;1202;72945;-23
2021/08/22 04:36:28;;;;;;;6.00;3.50;;;;;;;16.85;66.99;99268.42;111153;1201;60880;-22
2021/08/22 04:38:56;;;;;;;7.00;4.00;;;;;;;16.64;67.59;99267.98;111135;1201;61980;-22
2021/08/22 04:41:24;;;;;;;4.10;3.30;;;;;;;16.32;68.25;99269.78;111128;1201;75126;-21
2021/08/22 04:43:53;;;;;;;4.40;3.10;;;;;;;16.08;68.93;99269.90;111125;1201;75370;-22
2021/08/22 04:46:21;;;;;;;5.00;3.70;;;;;;;16.89;68.56;99276.64;111167;1202;72713;-22
2021/08/22 04:48:50;;;;;;;5.70;3.80;;;;;;;17.58;66.26;99276.04;111167;1201;60970;-21
2021/08/22 04:51:19;;;;;;;4.80;3.50;;;;;;;17.84;64.43;99274.84;111183;1201;60859;-22
2021/08/22 04:53:47;;;;;;;5.50;3.60;;;;;;;17.89;64.63;99279.77;111095;1201;75176;-21
2021/08/22 04:56:16;;;;;;;6.50;4.00;;;;;;;18.02;64.19;99276.64;111190;1195;76077;-21
2021/08/22 04:58:44;;;;;;;5.00;3.90;;;;;;;18.12;63.54;99274.51;111098;1195;73088;-21
2021/08/22 05:01:13;;;;;;;5.20;3.80;;;;;;;18.08;64.20;99278.30;111151;1201;60858;-21
2021/08/22 05:03:42;;;;;;;5.90;3.50;;;;;;;18.10;64.24;99280.91;111198;1201;60838;-22
2021/08/22 05:06:11;;;;;;;8.20;3.70;;;;;;;18.09;64.31;99278.30;111166;1202;75084;-21
2021/08/22 05:08:39;;;;;;;4.40;3.60;;;;;;;17.93;64.65;99282.98;111096;1201;74548;-21
2021/08/22 05:11:07;;;;;;;4.20;3.00;;;;;;;17.91;65.19;99278.67;111068;1196;73124;-21
2021/08/22 05:13:37;;;;;;;6.00;2.90;;;;;;;18.69;64.35;99280.40;111138;1201;61421;-22
2021/08/22 05:16:05;;;;;;;6.60;3.30;;;;;;;19.51;61.67;99279.77;111159;1201;60910;-23
2021/08/22 05:18:44;;;;;;;4.30;3.20;;;;;;;19.86;60.54;99278.09;111092;1201;75187;-21
2021/08/22 05:21:12;;;;;;;8.90;3.40;;;;;;;19.77;60.73;99279.30;111106;1201;75571;-21
2021/08/22 05:23:40;;;;;;;7.30;3.40;;;;;;;19.42;61.33;99278.20;111161;1201;73716;-22
2021/08/22 05:26:08;;;;;;;6.50;3.60;;;;;;;19.16;62.42;99279.48;111074;1202;61458;-22
2021/08/22 05:28:37;;;;;;;4.80;3.40;;;;;;;18.91;63.34;99280.71;111142;1201;60855;-22
2021/08/22 05:31:05;;;;;;;5.10;3.40;;;;;;;18.81;63.48;99280.11;111126;1201;74262;-23
2021/08/22 05:33:33;;;;;;;4.80;3.40;;;;;;;18.97;63.56;99282.72;111146;1196;75497;-24
2021/08/22 05:36:19;;;;;;;5.20;2.90;;;;;;;19.11;62.95;99284.20;111105;1201;72970;-21
2021/08/22 05:38:48;;;;;;;5.10;3.10;;;;;;;19.26;61.98;99282.44;111180;1201;60868;-21
2021/08/22 05:41:16;;;;;;;4.40;3.40;;;;;;;19.39;61.45;99285.21;111185;1201;61794;-21
2021/08/22 05:43:45;;;;;;;5.40;2.90;;;;;;;19.48;61.89;99283.69;111168;1202;73765;-22
2021/08/22 05:46:13;;;;;;;4.30;2.90;;;;;;;19.47;61.70;99284.45;111146;1202;75569;-22
2021/08/22 05:48:42;;;;;;;5.20;3.20;;;;;;;19.49;61.96;99286.21;111152;1201;73981;-23
2021/08/22 05:51:25;;;;;;;7.60;2.60;;;;;;;19.49;60.96;99285.46;111010;1203;60814;-22
2021/08/22 05:53:53;;;;;;;9.60;2.70;;;;;;;19.46;61.01;99288.75;111104;1202;60938;-22
2021/08/22 05:56:21;;;;;;;2.90;2.30;;;;;;;19.42;60.79;99287.95;111094;1201;74912;-22
2021/08/22 05:58:50;;;;;;;3.30;2.80;;;;;;;19.37;61.16;99294.45;111192;1201;75579;-23
2021/08/22 06:01:18;;;;;;;2.80;2.20;;;;;;;19.31;62.22;99294.26;111140;1201;73145;-23
2021/08/22 06:03:47;;;;;;;4.50;2.30;;;;;;;19.25;61.44;99292.78;111165;1202;61000;-22
2021/08/22 06:06:17;;;;;;;4.60;2.40;;;;;;;18.99;62.43;99297.65;111168;1201;61397;-22
2021/08/22 06:08:47;;;;;;;3.20;2.30;;;;;;;18.90;62.52;99295.80;111103;1202;74262;-23
2021/08/22 06:11:15;;;;;;;6.60;2.50;;;;;;;18.89;62.94;99296.45;111152;1201;73573;-23
2021/08/22 06:13:43;;;;;;;4.00;2.50;;;;;;;18.93;62.83;99294.46;111129;1201;72828;-22
2021/08/22 06:16:12;;;;;;;4.70;2.50;;;;;;;18.96;62.81;99293.35;111122;1195;61440;-21
2021/08/22 06:18:41;;;;;;;3.90;2.60;;;;;;;19.05;63.35;99292.60;111166;1201;60848;-22
2021/08/22 06:21:10;;;;;;;3.10;1.90;;;;;;;19.18;63.77;99284.44;111129;1201;75105;-21
2021/08/22 06:23:38;;;;;;;4.50;2.20;;;;;;;19.82;62.81;99277.16;111164;1201;75646;-21
2021/08/22 06:26:06;;;;;;;3.30;2.00;;;;;;;20.47;60.38;99276.23;111121;1201;72704;-22
2021/08/22 06:28:34;;;;;;;3.80;2.20;;;;;;;20.73;60.01;99280.89;111076;1201;61445;-22
2021/08/22 06:31:03;;;;;;;3.40;2.20;;;;;;;20.75;59.85;99278.33;111167;1201;60960;-22
2021/08/22 06:33:32;;;;;;;2.90;2.30;;;;;;;20.78;59.99;99281.01;111201;1201;74030;-22
2021/08/22 06:36:02;;;;;;;6.60;2.10;;;;;;;20.87;57.00;99280.27;111105;1201;74654;-23
2021/08/22 06:38:30;;;;;;;3.60;2.30;;;;;;;21.05;56.96;99278.83;111108;1201;72764;-21
2021/08/22 06:40:59;;;;;;;4.10;1.80;;;;;;;21.17;56.53;99276.11;111120;1201;60858;-21
2021/08/22 06:43:27;;;;;;;3.10;1.70;;;;;;;21.19;55.20;99275.71;111135;1202;60852;-21
2021/08/22 06:45:56;;;;;;;2.20;1.30;;;;;;;21.15;54.67;99276.61;111156;1201;75226;-21
2021/08/22 06:48:25;;;;;;;2.60;1.80;;;;;;;21.11;55.76;99275.77;111141;1201;75366;-21
2021/08/22 06:50:57;;;;;;;2.80;1.90;;;;;;;20.99;55.61;99274.45;111171;1201;74072;-21
2021/08/22 06:53:25;;;;;;;2.10;1.70;;;;;;;20.92;56.90;99276.27;111063;1201;60877;-22
2021/08/22 06:55:53;;;;;;;2.70;1.90;;;;;;;20.92;57.22;99275.27;111181;1201;60965;-21
2021/08/22 06:58:23;;;;;;;2.90;1.80;;;;;;;20.85;56.57;99274.70;111120;1201;75104;-21
2021/08/22 07:00:51;;;;;;;5.00;1.90;;;;;;;20.82;56.81;99276.30;111147;1201;75590;-21
2021/08/22 07:03:20;;;;;;;2.00;1.20;;;;;;;20.82;55.73;99281.22;111188;1201;73820;-22
2021/08/22 07:05:48;;;;;;;4.50;1.90;;;;;;;20.54;55.31;99272.20;111157;1201;60881;-21
2021/08/22 07:08:17;;;;;;;4.70;1.70;;;;;;;20.49;56.29;99278.95;111169;1201;60859;-22
2021/08/22 07:10:45;;;;;;;3.30;1.90;;;;;;;20.43;56.28;99280.98;111157;1201;74310;-21
2021/08/22 07:13:13;;;;;;;5.60;1.50;;;;;;;20.36;56.71;99283.61;111151;1201;75189;-21
2021/08/22 07:15:42;;;;;;;1.60;1.30;;;;;;;20.26;57.95;99280.48;111190;1202;72720;-21
2021/08/22 07:18:11;;;;;;;2.10;1.50;;;;;;;20.31;57.98;99283.14;111154;1201;60877;-21
2021/08/22 07:20:40;;;;;;;2.40;1.40;;;;;;;20.39;57.20;99284.25;111182;1202;60855;-21
2021/08/22 07:23:08;;;;;;;5.50;1.80;;;;;;;20.49;57.91;99285.45;111234;1201;74883;-21
2021/08/22 07:25:37;;;;;;;1.90;1.60;;;;;;;20.49;57.71;99283.58;111200;1201;75533;-21
2021/08/22 07:28:06;;;;;;;2.00;1.30;;;;;;;20.48;57.90;99284.61;111160;1195;73015;-22
2021/08/22 07:30:34;;;;;;;3.40;2.00;;;;;;;20.63;57.74;99283.14;111148;1201;60849;-21
2021/08/22 07:33:03;;;;;;;4.20;1.40;;;;;;;20.62;57.93;99285.37;111138;1201;60851;-22
2021/08/22 07:35:31;;;;;;;3.80;1.50;;;;;;;20.35;57.91;99284.66;111156;1201;74136;-22
2021/08/22 07:38:00;;;;;;;2.10;1.50;;;;;;;20.55;57.82;99280.88;111156;1195;74666;-22
2021/08/22 07:40:28;;;;;;;3.50;1.60;;;;;;;20.80;57.32;99287.26;111095;1201;73018;-22
2021/08/22 07:42:56;;;;;;;2.40;1.50;;;;;;;21.00;55.62;99284.92;111133;1201;60873;-21
2021/08/22 07:45:25;;;;;;;3.60;1.40;;;;;;;21.17;55.88;99287.63;111130;1201;61421;-20
2021/08/22 07:47:53;;;;;;;4.30;1.60;;;;;;;21.35;55.59;99286.41;111213;1202;72558;-21
2021/08/22 07:50:21;;;;;;;5.20;1.70;;;;;;;21.40;54.33;99289.15;111205;1201;73149;-21
2021/08/22 07:52:50;;;;;;;3.60;1.60;;;;;;;21.54;54.73;99286.58;111158;1201;73968;-21
2021/08/22 07:55:19;;;;;;;3.50;1.70;;;;;;;21.63;54.00;99283.23;111162;1201;60860;-21
2021/08/22 07:57:47;;;;;;;1.70;1.40;;;;;;;21.98;54.34;99285.09;111088;1201;60977;-21
2021/08/22 08:00:16;;;;;;;1.90;1.60;;;;;;;22.16;53.09;99286.75;111140;1198;74082;-22
2021/08/22 08:02:44;;;;;;;3.00;1.70;;;;;;;22.23;53.75;99289.77;111143;1201;75223;-22
2021/08/22 08:05:13;;;;;;;3.10;1.70;;;;;;;21.95;52.28;99286.33;111125;1201;74147;-22
2021/08/22 08:07:41;;;;;;;2.50;1.60;;;;;;;21.42;54.16;99282.80;111100;1201;60864;-22
2021/08/22 08:10:13;;;;;;;3.50;1.70;;;;;;;21.77;53.52;99283.61;111120;1197;60890;-23
2021/08/22 08:12:42;;;;;;;3.50;2.10;;;;;;;21.78;53.27;99279.00;111152;1201;74210;-23
2021/08/22 08:15:11;;;;;;;3.70;2.40;;;;;;;21.70;51.97;99278.61;111151;1201;75482;-23
2021/08/22 08:17:39;;;;;;;2.70;2.00;;;;;;;21.82;52.59;99277.36;111184;1201;73978;-23
2021/08/22 08:20:10;;;;;;;46.50;5.50;;;;;;;22.02;52.41;99271.81;111149;1201;61827;-22
2021/08/22 08:22:38;;;;;;;2.60;1.90;;;;;;;22.38;51.64;99271.58;111172;1195;61965;-23
2021/08/22 08:25:07;;;;;;;3.10;1.80;;;;;;;22.33;50.78;99269.20;111185;1201;75108;-23
2021/08/22 08:27:35;;;;;;;2.90;2.10;;;;;;;22.20;50.69;99269.81;111136;1202;74579;-22
2021/08/22 08:30:04;;;;;;;1.80;1.60;;;;;;;21.94;51.26;99275.65;111156;1202;73909;-23
2021/08/22 08:32:37;;;;;;;3.20;1.80;;;;;;;21.86;52.21;99275.14;111053;1203;61021;-22
2021/08/22 08:35:10;;;;;;;2.30;1.80;;;;;;;21.73;52.24;99275.75;110944;1203;61485;-22
2021/08/22 08:37:40;;;;;;;2.70;2.10;;;;;;;21.49;52.43;99277.68;111011;1201;75222;-21
2021/08/22 08:40:13;;;;;;;4.00;2.10;;;;;;;21.47;52.85;99280.52;111170;1202;72993;-22
2021/08/22 08:42:47;;;;;;;3.00;2.50;;;;;;;21.52;53.05;99281.09;111103;1195;72818;-21
2021/08/22 08:45:17;;;;;;;2.80;2.40;;;;;;;21.19;53.48;99276.02;111173;1201;61036;-22
2021/08/22 08:47:47;;;;;;;3.10;2.50;;;;;;;21.08;54.27;99276.45;111157;1195;60806;-21
2021/08/22 08:50:44;;;;;;;5.60;2.70;;;;;;;21.04;55.67;99276.86;111050;1196;75146;-21
2021/08/22 08:53:16;;;;;;;2.60;2.10;;;;;;;21.05;55.36;99277.94;110949;1202;75422;-22
2021/08/22 08:55:51;;;;;;;11.60;3.00;;;;;;;21.23;53.90;99276.59;111134;1201;74113;-21
2021/08/22 08:58:19;;;;;;;3.50;2.50;;;;;;;21.72;51.94;99275.23;111073;1202;61687;-22
2021/08/22 09:00:47;;;;;;;2.80;2.20;;;;;;;21.88;52.35;99275.07;111139;1201;61774;-21
2021/08/22 09:03:17;;;;;;;10.50;2.70;;;;;;;21.80;53.44;99278.48;111208;1201;73969;-21
2021/08/22 09:06:04;;;;;;;2.90;2.40;;;;;;;21.65;52.65;99272.66;111148;1202;75015;-21
2021/08/22 09:09:03;;;;;;;4.90;2.30;;;;;;;21.42;53.16;99274.82;111141;1201;72930;-21
2021/08/22 09:11:57;;;;;;;3.50;2.10;;;;;;;21.28;52.29;99276.23;111103;1202;60891;-22
2021/08/22 09:14:30;;;;;;;3.40;2.00;;;;;;;21.44;52.66;99271.73;111097;1202;61026;-22
2021/08/22 09:17:13;;;;;;;;;;;;;;;21.96;51.66;99273.27;111160;1203;74305;-21
2021/08/22 09:20:14;;;;;;;3.10;2.20;;;;;;;22.21;48.63;99269.78;111158;1202;75554;-22
2021/08/22 09:23:16;;;;;;;2.90;2.30;;;;;;;22.13;49.93;99270.63;111097;1202;74019;-21
2021/08/22 09:26:23;;;;;;;2.60;2.00;;;;;;;21.51;49.44;99272.16;111098;1202;61511;-22
2021/08/22 09:29:30;;;;;;;4.50;2.00;;;;;;;21.40;51.36;99275.61;111128;1203;60904;-22
2021/08/22 09:32:36;;;;;;;2.40;1.90;;;;;;;21.89;51.44;99271.70;111140;1202;74009;-21
2021/08/22 09:35:14;;;;;;;3.80;2.10;;;;;;;22.59;48.86;99265.92;111125;1202;74803;-21
2021/08/22 09:38:21;;;;;;;2.60;1.30;;;;;;;22.92;48.23;99265.33;111127;1203;72952;-22
2021/08/22 09:40:55;;;;;;;2.40;1.80;;;;;;;23.12;46.57;99270.28;111149;1198;60957;-22
2021/08/22 09:44:01;;;;;;;4.90;2.00;;;;;;;23.15;46.39;99262.63;111103;1199;60940;-22
2021/08/22 09:46:59;;;;;;;2.50;1.80;;;;;;;23.31;44.35;99262.15;111106;1202;74316;-22
2021/08/22 09:49:50;;;;;;;3.50;1.80;;;;;;;23.03;45.19;99260.45;111207;1197;75487;-22
2021/08/22 09:52:47;;;;;;;2.40;1.90;;;;;;;23.06;45.12;99257.20;111128;1202;73895;-21
2021/08/22 09:55:41;;;;;;;2.70;1.70;;;;;;;22.70;46.70;99253.14;111147;1202;60848;-22
2021/08/22 09:58:47;;;;;;;2.50;1.90;;;;;;;22.81;47.16;99257.39;111133;1203;61460;-22
2021/08/22 10:01:34;;;;;;;2.50;1.80;;;;;;;22.35;46.12;99254.92;111166;1203;75110;-21
2021/08/22 10:04:21;;;;;;;2.00;1.70;;;;;;;22.37;45.98;99254.67;111148;1203;75319;-22
2021/08/22 10:07:09;;;;;;;2.50;1.80;;;;;;;22.84;47.26;99250.08;111166;1203;74298;-23
2021/08/22 10:10:00;;;;;;;2.40;1.70;;;;;;;23.36;45.15;99245.70;111130;1203;60898;-22
2021/08/22 10:12:28;;;;;;;1.90;1.70;;;;;;;23.38;42.49;99244.79;110976;1201;61706;-23
2021/08/22 10:14:57;;;;;;;3.80;1.70;;;;;;;23.04;44.59;99250.39;111086;1201;74741;-23
2021/08/22 10:17:26;;;;;;;2.60;1.80;;;;;;;22.89;45.28;99250.14;111090;1195;74569;-23
2021/08/22 10:19:55;;;;;;;3.10;2.20;;;;;;;22.73;46.29;99247.48;111119;1201;73762;-22
2021/08/22 10:22:29;;;;;;;2.20;2.00;;;;;;;22.49;45.98;99247.30;111105;1202;60841;-22
2021/08/22 10:25:08;;;;;;;2.90;2.10;;;;;;;22.11;46.93;99237.81;111162;1201;60838;-23
2021/08/22 10:28:01;;;;;;;2.90;2.10;;;;;;;21.63;48.05;99241.05;111163;1195;75127;-23
2021/08/22 10:30:29;;;;;;;6.30;2.40;;;;;;;21.51;48.62;99243.34;111190;1201;74416;-23
2021/08/22 10:32:58;;;;;;;3.10;2.00;;;;;;;21.45;47.80;99244.44;111177;1202;74057;-22
2021/08/22 10:35:42;;;;;;;1.90;1.70;;;;;;;21.38;48.65;99249.52;111135;1201;61587;-23
2021/08/22 10:38:26;;;;;;;2.80;2.10;;;;;;;21.76;48.67;99248.44;111081;1196;61017;-23
2021/08/22 10:40:54;;;;;;;5.60;2.20;;;;;;;22.07;46.99;99247.59;111150;1195;73868;-23
2021/08/22 10:43:23;;;;;;;17.70;3.50;;;;;;;22.34;44.45;99252.05;111254;1201;74665;-23
2021/08/22 10:45:52;;;;;;;2.80;2.00;;;;;;;22.96;46.49;99252.26;111154;1201;74232;-22
2021/08/22 10:48:24;;;;;;;2.20;1.90;;;;;;;23.62;45.26;99244.04;111021;1202;60903;-21
2021/08/22 10:53:32;;;;;;;3.20;2.30;;;;;;;24.48;42.39;99242.95;111164;1201;75342;-22
2021/08/22 10:56:21;;;;;;;2.60;2.10;;;;;;;24.38;43.39;99244.30;111160;1202;74033;-23
2021/08/22 10:58:56;;;;;;;2.70;1.80;;;;;;;23.47;42.90;99251.12;111175;1201;74186;-22
2021/08/22 11:01:26;;;;;;;2.40;1.80;;;;;;;22.83;42.15;99249.70;111136;1201;61661;-21
2021/08/22 11:04:17;;;;;;;2.70;1.80;;;;;;;22.85;43.29;99250.58;111052;1201;60869;-22
2021/08/22 11:07:03;;;;;;;3.20;2.20;;;;;;;23.09;41.52;99248.33;111135;1202;72598;-21
2021/08/22 11:09:41;;;;;;;2.40;1.70;;;;;;;23.35;41.04;99245.67;111144;1202;74749;-20
2021/08/22 11:12:29;;;;;;;2.80;1.90;;;;;;;23.78;42.05;99240.83;111157;1202;73204;-23
2021/08/22 11:15:00;;;;;;;2.70;1.90;;;;;;;23.98;41.27;99233.08;111172;1201;61332;-21
2021/08/22 11:17:29;;;;;;;2.40;1.70;;;;;;;23.99;41.98;99241.70;111155;1201;60942;-22
2021/08/22 11:20:14;;;;;;;3.30;1.80;;;;;;;24.18;41.04;99239.91;111138;1202;75140;-22
2021/08/22 11:22:42;;;;;;;2.30;2.00;;;;;;;23.85;40.72;99242.34;111158;1202;74534;-23
2021/08/22 11:25:11;;;;;;;2.60;2.10;;;;;;;23.39;42.79;99244.94;111230;1201;72247;-22
2021/08/22 11:27:40;;;;;;;5.00;2.40;;;;;;;22.75;45.13;99245.56;111237;1201;61537;-22
2021/08/22 11:30:12;;;;;;;3.10;2.30;;;;;;;22.69;47.75;99249.92;111244;1200;60880;-23
2021/08/22 11:32:49;;;;;;;2.60;2.10;;;;;;;22.47;46.87;99249.61;111112;1203;73939;-23
2021/08/22 11:35:21;;;;;;;3.50;2.00;;;;;;;22.16;46.29;99247.49;111134;1201;75076;-23
2021/08/22 11:38:04;;;;;;;5.30;2.20;;;;;;;21.94;47.86;99250.00;111132;1196;73998;-22
2021/08/22 11:40:33;;;;;;;2.70;2.20;;;;;;;21.85;48.05;99250.27;111228;1201;61892;-23
2021/08/22 11:43:06;;;;;;;3.50;1.90;;;;;;;22.00;48.78;99252.84;111158;1196;61688;-23
2021/08/22 11:45:39;;;;;;;2.40;2.00;;;;;;;22.51;46.49;99245.68;111057;1201;74307;-23
2021/08/22 11:48:14;;;;;;;4.70;2.20;;;;;;;22.78;45.81;99241.90;111158;1197;75739;-22
2021/08/22 11:50:43;;;;;;;2.60;2.10;;;;;;;23.15;45.24;99238.92;111021;1202;72132;-23